»·PEaware :: ASA466 KLAX-KSEA

ASA466 :: KLAX-KSEA

FLIGHT INFORMATION

Flight Status: Arrived
Operator:
Alaska Airlines
More flights by this operator :: More flights under this callsign
Pilot: Sean T. (30125)
Aircraft: AIRBUS A319
(A319)
More flights by this aircraft type
Origin: KLAX Los Angeles Intl
United States
Destination: KSEA Seattle-Tacoma Intl
United States
More flights between these airports :: More routes between these airports
Route: LADYJ4 CSTRO NTELL SHIMR LKV HAWKZ7
File this flight plan on PilotEdge
Remarks:
Altitude:
(Current/Filed)
32,000ft
Speed:
(Current/Filed)
290kts
Departed: 18-Feb-21 01:09 PM
Arrived: 18-Feb-21 03:37 PM
Distance/Time
Traveled:
829nm/2:27
Distance/Time
To Go:
Arrived

Flight Plot

Page will automatically refresh every two minutes.

Flight plan parsing failed; only flown route is shown


Map Options




Map Legend


Flown Route
Filed Route
Departure Airport
Arrival Airport
Navaid (VOR, NDB)
Fix

Horizontal Profiles

Position Reports

Time Latitude Longitude Heading Altitude Ground
Speed
18-Feb-21 12:53 33.941433 -118.401506 276 125ft 0kts
18-Feb-21 12:54 33.941433 -118.401506 276 125ft 0kts
18-Feb-21 12:55 33.941433 -118.401506 276 125ft 0kts
18-Feb-21 12:56 33.941433 -118.401506 276 125ft 0kts
18-Feb-21 12:57 33.941433 -118.401506 276 125ft 0kts
18-Feb-21 12:58 33.941429 -118.401455 277 125ft 0kts
18-Feb-21 12:59 33.941706 -118.400908 196 124ft 2kts
18-Feb-21 13:00 33.940993 -118.400763 173 124ft 6kts
18-Feb-21 13:01 33.940698 -118.400721 173 123ft 0kts
18-Feb-21 13:02 33.940698 -118.400721 173 123ft 0kts
18-Feb-21 13:03 33.939836 -118.400600 173 123ft 10kts
18-Feb-21 13:04 33.939174 -118.396157 83 115ft 20kts
18-Feb-21 13:05 33.939883 -118.389177 82 108ft 20kts
18-Feb-21 13:06 33.940603 -118.382197 83 104ft 16kts
18-Feb-21 13:07 33.940524 -118.380052 151 104ft 7kts
18-Feb-21 13:08 33.938432 -118.393905 263 112ft 146kts
18-Feb-21 13:09 33.932939 -118.450572 264 2725ft 185kts
18-Feb-21 13:10 33.927191 -118.519208 266 4381ft 204kts
18-Feb-21 13:11 33.921483 -118.584681 274 7153ft 205kts
18-Feb-21 13:12 33.941550 -118.645309 334 9531ft 234kts
18-Feb-21 13:13 34.008633 -118.675564 357 11906ft 282kts
18-Feb-21 13:14 34.087030 -118.668801 6 15214ft 285kts
18-Feb-21 13:15 34.163094 -118.651017 7 18439ft 273kts
18-Feb-21 13:16 34.233468 -118.634701 0 21472ft 246kts
18-Feb-21 13:17 34.299714 -118.644709 346 23258ft 248kts
18-Feb-21 13:18 34.369412 -118.660597 346 24725ft 262kts
18-Feb-21 13:19 34.442545 -118.676895 347 26196ft 273kts
18-Feb-21 13:20 34.518554 -118.691561 346 27678ft 280kts
18-Feb-21 13:21 34.595375 -118.706544 346 29143ft 282kts
18-Feb-21 13:22 34.672276 -118.721588 345 30600ft 278kts
18-Feb-21 13:23 34.744104 -118.748536 330 31878ft 268kts
18-Feb-21 13:24 34.810265 -118.793255 328 32404ft 286kts
18-Feb-21 13:25 34.884109 -118.843907 328 32404ft 324kts
18-Feb-21 13:26 34.966808 -118.900785 327 32403ft 359kts
18-Feb-21 13:27 35.057267 -118.963215 327 32400ft 390kts
18-Feb-21 13:28 35.154222 -119.030110 327 32394ft 406kts
18-Feb-21 13:29 35.252692 -119.098322 327 32394ft 407kts
18-Feb-21 13:30 35.350905 -119.166770 327 32394ft 407kts
18-Feb-21 13:31 35.450179 -119.232498 332 32394ft 409kts
18-Feb-21 13:32 35.557048 -119.282564 336 32399ft 411kts
18-Feb-21 13:33 35.664031 -119.330040 336 32401ft 411kts
18-Feb-21 13:34 35.771546 -119.377894 336 32401ft 411kts
18-Feb-21 13:35 35.878647 -119.425710 336 32402ft 411kts
18-Feb-21 13:36 35.985832 -119.473698 336 32412ft 411kts
18-Feb-21 13:37 36.093244 -119.521927 336 32420ft 411kts
18-Feb-21 13:38 36.200320 -119.569918 336 32420ft 411kts
18-Feb-21 13:39 36.307581 -119.618306 336 32420ft 411kts
18-Feb-21 13:40 36.414658 -119.666966 335 32421ft 410kts
18-Feb-21 13:41 36.521539 -119.715845 335 32420ft 410kts
18-Feb-21 13:42 36.628432 -119.764598 335 32420ft 410kts
18-Feb-21 13:43 36.735173 -119.813402 335 32420ft 410kts
18-Feb-21 13:44 36.842138 -119.862341 336 32418ft 411kts
18-Feb-21 13:45 36.953676 -119.896541 346 32417ft 417kts
18-Feb-21 13:46 37.068431 -119.914458 346 32416ft 413kts
18-Feb-21 13:47 37.181452 -119.931724 346 32415ft 410kts
18-Feb-21 13:48 37.294460 -119.949137 346 32413ft 410kts
18-Feb-21 13:49 37.407108 -119.966534 346 32411ft 410kts
18-Feb-21 13:50 37.520083 -119.984031 346 32410ft 410kts
18-Feb-21 13:51 37.633093 -120.001588 346 32405ft 410kts
18-Feb-21 13:52 37.746005 -120.019184 346 32407ft 410kts
18-Feb-21 13:53 37.858834 -120.036824 346 32406ft 410kts
18-Feb-21 13:54 37.971824 -120.054550 346 32397ft 410kts
18-Feb-21 13:55 38.084433 -120.072284 346 32394ft 410kts
18-Feb-21 13:56 38.197533 -120.090070 346 32384ft 410kts
18-Feb-21 13:57 38.311046 -120.102656 348 32370ft 412kts
18-Feb-21 13:58 38.425458 -120.112943 348 32368ft 412kts
18-Feb-21 13:59 38.539602 -120.123338 348 32360ft 412kts
18-Feb-21 14:00 38.653974 -120.133808 348 32350ft 412kts
18-Feb-21 14:01 38.768200 -120.144301 348 32349ft 412kts
18-Feb-21 14:02 38.882306 -120.154816 348 32349ft 412kts
18-Feb-21 14:03 38.996501 -120.165325 348 32348ft 414kts
18-Feb-21 14:04 39.111212 -120.175983 347 32351ft 414kts
18-Feb-21 14:05 39.226279 -120.186588 347 32353ft 414kts
18-Feb-21 14:06 39.340397 -120.197221 347 32356ft 414kts
18-Feb-21 14:07 39.454969 -120.207952 347 32356ft 414kts
18-Feb-21 14:08 39.569518 -120.218721 347 32356ft 414kts
18-Feb-21 14:09 39.684264 -120.229546 347 32356ft 414kts
18-Feb-21 14:10 39.798731 -120.240377 347 32356ft 414kts
18-Feb-21 14:11 39.913627 -120.251287 347 32356ft 414kts
18-Feb-21 14:12 40.028068 -120.262189 347 32358ft 414kts
18-Feb-21 14:13 40.142773 -120.273104 347 32371ft 414kts
18-Feb-21 14:14 40.256985 -120.283955 347 32382ft 414kts
18-Feb-21 14:16 40.371845 -120.294990 347 32384ft 414kts
18-Feb-21 14:17 40.486163 -120.306026 347 32384ft 414kts
18-Feb-21 14:18 40.600556 -120.317110 347 32384ft 414kts
18-Feb-21 14:19 40.715271 -120.328263 347 32384ft 414kts
18-Feb-21 14:20 40.829721 -120.339427 347 32383ft 413kts
18-Feb-21 14:21 40.944126 -120.350627 347 32356ft 413kts
18-Feb-21 14:22 41.058071 -120.361750 347 32327ft 412kts
18-Feb-21 14:23 41.172059 -120.372898 346 32321ft 411kts
18-Feb-21 14:24 41.286055 -120.384163 346 32321ft 411kts
18-Feb-21 14:25 41.400016 -120.395478 346 32321ft 411kts
18-Feb-21 14:26 41.513811 -120.406822 346 32321ft 411kts
18-Feb-21 14:27 41.627531 -120.418202 346 32321ft 411kts
18-Feb-21 14:28 41.741326 -120.429627 346 32321ft 411kts
18-Feb-21 14:29 41.855017 -120.441085 346 32318ft 411kts
18-Feb-21 14:30 41.968977 -120.452621 346 32313ft 411kts
18-Feb-21 14:31 42.082901 -120.464196 346 32312ft 411kts
18-Feb-21 14:32 42.196747 -120.475698 346 32312ft 411kts
18-Feb-21 14:33 42.310552 -120.487396 346 32312ft 411kts
18-Feb-21 14:34 42.416510 -120.499159 344 32312ft 408kts
18-Feb-21 14:35 42.525464 -120.531352 334 32312ft 397kts
18-Feb-21 14:36 42.626465 -120.586823 329 32312ft 391kts
18-Feb-21 14:37 42.725594 -120.646906 329 32312ft 391kts
18-Feb-21 14:38 42.824486 -120.707529 328 32312ft 390kts
18-Feb-21 14:39 42.923353 -120.768044 328 32312ft 391kts
18-Feb-21 14:39 43.005757 -120.818529 327 32312ft 392kts
18-Feb-21 14:41 43.121960 -120.890060 326 32285ft 394kts
18-Feb-21 14:41 43.205365 -120.941310 326 32214ft 394kts
18-Feb-21 14:42 43.305401 -121.003199 326 32162ft 397kts
18-Feb-21 14:43 43.405837 -121.065636 326 32156ft 399kts
18-Feb-21 14:45 43.524065 -121.139451 325 32155ft 402kts
18-Feb-21 14:46 43.626198 -121.203494 325 32156ft 405kts
18-Feb-21 14:46 43.711530 -121.257182 325 32155ft 405kts
18-Feb-21 14:47 43.814203 -121.321883 324 32143ft 415kts
18-Feb-21 14:48 43.920423 -121.389378 324 32108ft 424kts
18-Feb-21 14:49 44.027478 -121.457451 324 32100ft 424kts
18-Feb-21 14:50 44.134560 -121.525737 324 32100ft 424kts
18-Feb-21 14:51 44.241636 -121.594059 324 32098ft 424kts
18-Feb-21 14:52 44.348408 -121.662825 323 32098ft 423kts
18-Feb-21 14:53 44.454898 -121.732049 323 32091ft 422kts
18-Feb-21 14:54 44.561131 -121.801092 323 32083ft 423kts
18-Feb-21 14:55 44.667765 -121.870603 323 32083ft 423kts
18-Feb-21 14:56 44.773781 -121.939982 323 32103ft 422kts
18-Feb-21 14:57 44.879962 -122.009763 323 32130ft 421kts
18-Feb-21 14:58 44.985853 -122.079611 323 32135ft 422kts
18-Feb-21 14:59 45.093002 -122.150518 321 32134ft 431kts
18-Feb-21 15:00 45.202414 -122.222960 321 32135ft 434kts
18-Feb-21 15:01 45.311556 -122.295833 321 32135ft 433kts
18-Feb-21 15:02 45.420657 -122.369097 321 31993ft 435kts
18-Feb-21 15:03 45.528080 -122.441557 322 29589ft 430kts
18-Feb-21 15:04 45.636833 -122.515336 323 27519ft 438kts
18-Feb-21 15:05 45.749393 -122.586780 332 25547ft 456kts
18-Feb-21 15:06 45.876544 -122.622821 341 23611ft 472kts
18-Feb-21 15:07 45.999418 -122.652614 339 22151ft 418kts
18-Feb-21 15:08 46.109005 -122.679785 341 22120ft 402kts
18-Feb-21 15:09 46.218974 -122.701330 341 20794ft 394kts
18-Feb-21 15:10 46.326352 -122.720800 346 19316ft 390kts
18-Feb-21 15:11 46.433786 -122.725606 350 17389ft 381kts
18-Feb-21 15:12 46.535714 -122.729150 350 15418ft 360kts
18-Feb-21 15:13 46.633502 -122.732724 351 13588ft 346kts
18-Feb-21 15:14 46.726342 -122.736103 352 12012ft 324kts
18-Feb-21 15:15 46.813607 -122.706133 35 12019ft 347kts
18-Feb-21 15:16 46.888351 -122.617125 34 12009ft 346kts
18-Feb-21 15:17 46.969477 -122.546069 11 12008ft 338kts
18-Feb-21 15:18 47.055027 -122.509984 12 11586ft 311kts
18-Feb-21 15:19 47.138223 -122.488651 1 10704ft 298kts
18-Feb-21 15:20 47.219088 -122.474808 0 10037ft 286kts
18-Feb-21 15:21 47.294599 -122.463465 0 9255ft 270kts
18-Feb-21 15:22 47.369146 -122.454463 355 8270ft 269kts
18-Feb-21 15:23 47.443466 -122.454675 356 7245ft 263kts
18-Feb-21 15:24 47.512715 -122.454721 357 6070ft 238kts
18-Feb-21 15:25 47.579245 -122.454472 357 6059ft 240kts
18-Feb-21 15:26 47.646110 -122.454231 358 5018ft 241kts
18-Feb-21 15:27 47.706199 -122.442213 51 4059ft 198kts
18-Feb-21 15:28 47.709834 -122.367817 95 4059ft 182kts
18-Feb-21 15:29 47.681371 -122.319912 146 4057ft 154kts
18-Feb-21 15:30 47.643056 -122.307052 179 3909ft 141kts
18-Feb-21 15:31 47.603847 -122.306614 179 3169ft 141kts
18-Feb-21 15:32 47.565223 -122.306810 179 2412ft 127kts
18-Feb-21 15:33 47.531684 -122.307058 179 1782ft 121kts
18-Feb-21 15:34 47.498290 -122.307415 179 1149ft 119kts
18-Feb-21 15:35 47.465126 -122.307756 179 507ft 120kts
18-Feb-21 15:36 47.451677 -122.306258 166 419ft 15kts
18-Feb-21 15:37 47.446289 -122.306296 180 395ft 18kts
18-Feb-21 15:38 47.441159 -122.306366 181 381ft 17kts
18-Feb-21 15:39 47.439157 -122.303378 140 376ft 3kts
18-Feb-21 15:40 47.439111 -122.303320 140 376ft 0kts
18-Feb-21 15:41 47.439111 -122.303320 140 376ft 0kts

Navigation Log

Ident Type
Flight plan parsing failed, navigation log unavailable